Time;durP1;ratioP1;P1;durP2;ratioP2;P2;SDS_P1;SDS_P2;PMS_P1;PMS_P2;Temp;Humidity;BMP_temperature;BMP_pressure;BME280_temperature;BME280_humidity;BME280_pressure;Samples;Min_cycle;Max_cycle;Signal;HPM_P1;HPM_P2
2021/08/13 00:02:03;;;;;;;6.50;3.20;;;;;;;;;;5056597;28;20040;-78
2021/08/13 00:04:28;;;;;;;5.23;3.17;;;;;;;;;;5075411;28;20043;-79
2021/08/13 00:06:54;;;;;;;5.27;3.23;;;;;;;;;;5052940;28;20096;-79
2021/08/13 00:09:21;;;;;;;5.90;3.47;;;;;;;;;;5029354;28;20059;-79
2021/08/13 00:11:47;;;;;;;5.68;3.20;;;;;;;;;;5061209;28;20077;-79
2021/08/13 00:14:12;;;;;;;6.07;3.40;;;;;;;;;;5044621;28;20064;-78
2021/08/13 00:16:38;;;;;;;5.97;3.53;;;;;;;;;;5019889;28;20056;-79
2021/08/13 00:19:03;;;;;;;8.30;3.80;;;;;;;;;;5025938;28;20056;-79
2021/08/13 00:21:29;;;;;;;5.27;3.30;;;;;;;;;;5079532;28;20020;-77
2021/08/13 00:23:54;;;;;;;5.70;3.27;;;;;;;;;;5060065;28;20111;-77
2021/08/13 00:26:19;;;;;;;6.03;3.60;;;;;;;;;;5043805;28;20170;-76
2021/08/13 00:28:45;;;;;;;6.67;3.63;;;;;;;;;;5020390;28;20029;-76
2021/08/13 00:31:10;;;;;;;7.57;3.50;;;;;;;;;;5053408;28;20024;-77
2021/08/13 00:33:35;;;;;;;5.57;3.30;;;;;;;;;;5032063;28;20062;-76
2021/08/13 00:36:01;;;;;;;6.03;3.13;;;;;;;;;;5076660;28;20060;-77
2021/08/13 00:38:26;;;;;;;6.60;3.60;;;;;;;;;;5075310;28;20119;-77
2021/08/13 00:40:51;;;;;;;7.67;3.40;;;;;;;;;;5059798;28;20055;-76
2021/08/13 00:43:17;;;;;;;6.20;3.40;;;;;;;;;;5060436;28;20103;-76
2021/08/13 00:45:42;;;;;;;5.30;3.27;;;;;;;;;;5059652;28;20102;-76
2021/08/13 00:48:07;;;;;;;5.93;3.50;;;;;;;;;;5063500;28;20388;-76
2021/08/13 00:50:33;;;;;;;5.70;3.50;;;;;;;;;;5039747;28;20030;-77
2021/08/13 00:52:59;;;;;;;6.80;3.17;;;;;;;;;;5039828;28;20099;-77
2021/08/13 00:55:24;;;;;;;5.70;3.58;;;;;;;;;;5039638;28;20024;-76
2021/08/13 00:57:50;;;;;;;5.37;3.40;;;;;;;;;;5039605;28;20050;-76
2021/08/13 01:00:15;;;;;;;5.77;3.23;;;;;;;;;;5039473;28;20051;-76
2021/08/13 01:02:40;;;;;;;6.20;3.30;;;;;;;;;;5085587;28;20074;-76
2021/08/13 01:05:06;;;;;;;5.83;3.47;;;;;;;;;;5056006;28;20450;-76
2021/08/13 01:07:31;;;;;;;4.83;3.17;;;;;;;;;;5055848;28;20025;-76
2021/08/13 01:09:57;;;;;;;5.73;3.40;;;;;;;;;;5052440;28;20052;-76
2021/08/13 01:12:30;;;;;;;6.10;3.50;;;;;;;;;;5036340;28;20060;-77
2021/08/13 01:15:09;;;;;;;6.18;3.50;;;;;;;;;;5004164;28;20021;-76
2021/08/13 01:17:51;;;;;;;5.90;3.42;;;;;;;;;;5039662;28;20055;-76
2021/08/13 01:20:46;;;;;;;6.57;3.88;;;;;;;;;;5072480;28;20024;-77
2021/08/13 01:23:26;;;;;;;7.18;3.65;;;;;;;;;;5038969;28;20025;-76
2021/08/13 01:25:57;;;;;;;6.72;3.35;;;;;;;;;;5074107;28;20024;-76
2021/08/13 01:28:37;;;;;;;4.95;3.17;;;;;;;;;;5043890;28;20484;-76
2021/08/13 01:31:19;;;;;;;5.65;3.03;;;;;;;;;;5055597;28;20372;-77
2021/08/13 01:33:45;;;;;;;5.15;3.30;;;;;;;;;;5041066;28;20028;-76
2021/08/13 01:36:10;;;;;;;5.90;3.50;;;;;;;;;;5038897;28;20027;-76
2021/08/13 01:38:36;;;;;;;6.07;3.43;;;;;;;;;;5054006;28;20040;-77
2021/08/13 01:41:04;;;;;;;6.67;3.57;;;;;;;;;;5035651;28;20053;-76
2021/08/13 01:43:29;;;;;;;5.82;3.13;;;;;;;;;;5039783;28;20081;-76
2021/08/13 01:45:54;;;;;;;5.37;3.13;;;;;;;;;;5058714;28;20058;-76
2021/08/13 01:48:20;;;;;;;5.63;3.27;;;;;;;;;;5058263;28;20063;-76
2021/08/13 01:50:45;;;;;;;6.23;3.47;;;;;;;;;;5056415;28;20028;-76
2021/08/13 01:53:10;;;;;;;5.50;3.57;;;;;;;;;;5038744;28;20056;-76
2021/08/13 01:55:36;;;;;;;5.93;3.37;;;;;;;;;;5045828;28;20536;-76
2021/08/13 01:58:01;;;;;;;5.60;3.40;;;;;;;;;;5041141;28;20032;-76
2021/08/13 02:00:27;;;;;;;5.82;3.20;;;;;;;;;;5018848;28;20113;-76
2021/08/13 02:02:52;;;;;;;6.10;3.53;;;;;;;;;;5057378;28;20108;-77
2021/08/13 02:05:19;;;;;;;6.40;3.40;;;;;;;;;;5047500;28;20078;-77
2021/08/13 02:07:44;;;;;;;6.07;3.58;;;;;;;;;;5018727;28;20072;-77
2021/08/13 02:10:10;;;;;;;5.80;3.23;;;;;;;;;;5018593;28;20123;-76
2021/08/13 02:12:36;;;;;;;5.80;3.55;;;;;;;;;;5043324;23;20033;-80
2021/08/13 02:15:06;;;;;;;5.40;3.37;;;;;;;;;;5073620;28;20032;-80
2021/08/13 02:17:31;;;;;;;6.20;3.60;;;;;;;;;;5040109;28;20024;-80
2021/08/13 02:20:07;;;;;;;5.18;3.38;;;;;;;;;;5041895;28;20028;-80
2021/08/13 02:22:33;;;;;;;6.05;3.42;;;;;;;;;;5023627;28;20034;-80
2021/08/13 02:24:58;;;;;;;6.07;3.40;;;;;;;;;;5016172;28;20087;-80
2021/08/13 02:27:26;;;;;;;5.80;3.23;;;;;;;;;;5006527;28;20076;-80
2021/08/13 02:29:51;;;;;;;6.95;3.50;;;;;;;;;;5016457;28;20021;-80
2021/08/13 02:32:17;;;;;;;5.18;3.60;;;;;;;;;;5016988;28;20059;-80
2021/08/13 02:34:42;;;;;;;7.33;4.00;;;;;;;;;;5016356;28;20121;-80
2021/08/13 02:37:18;;;;;;;5.80;3.60;;;;;;;;;;5041575;28;20104;-80
2021/08/13 02:39:47;;;;;;;6.07;3.40;;;;;;;;;;5056708;28;20024;-80
2021/08/13 02:42:15;;;;;;;6.25;3.53;;;;;;;;;;5044712;28;20049;-80
2021/08/13 02:44:41;;;;;;;6.10;3.53;;;;;;;;;;4999819;28;20484;-80
2021/08/13 02:47:07;;;;;;;7.18;3.78;;;;;;;;;;5024218;28;20055;-80
2021/08/13 02:49:33;;;;;;;5.82;3.45;;;;;;;;;;5039155;28;20070;-80
2021/08/13 02:52:01;;;;;;;7.53;3.73;;;;;;;;;;5039125;28;20127;-80
2021/08/13 02:54:27;;;;;;;6.25;3.55;;;;;;;;;;5055982;28;20024;-80
2021/08/13 02:56:53;;;;;;;6.30;3.83;;;;;;;;;;5036524;28;20441;-80
2021/08/13 02:59:19;;;;;;;7.03;3.65;;;;;;;;;;5019452;28;20279;-80
2021/08/13 03:01:44;;;;;;;6.27;3.60;;;;;;;;;;5023195;28;20102;-80
2021/08/13 03:04:09;;;;;;;8.50;4.07;;;;;;;;;;5039774;28;20075;-80
2021/08/13 03:06:36;;;;;;;7.17;3.70;;;;;;;;;;5024111;28;20032;-80
2021/08/13 03:09:02;;;;;;;7.07;3.85;;;;;;;;;;5042342;28;20028;-80
2021/08/13 03:11:27;;;;;;;6.17;3.47;;;;;;;;;;5034510;28;20111;-80
2021/08/13 03:13:53;;;;;;;5.27;3.50;;;;;;;;;;5042084;28;20021;-80
2021/08/13 03:16:19;;;;;;;6.70;3.90;;;;;;;;;;5003087;28;20536;-80
2021/08/13 03:18:44;;;;;;;7.03;3.80;;;;;;;;;;5003491;28;20476;-80
2021/08/13 03:21:10;;;;;;;5.77;3.63;;;;;;;;;;5023102;28;20366;-81
2021/08/13 03:23:38;;;;;;;7.93;3.80;;;;;;;;;;5032878;28;20108;-80
2021/08/13 03:26:04;;;;;;;6.80;3.80;;;;;;;;;;5040214;28;20056;-80
2021/08/13 03:28:29;;;;;;;6.40;3.88;;;;;;;;;;5059756;28;20028;-80
2021/08/13 03:30:55;;;;;;;7.50;3.90;;;;;;;;;;5039049;28;20072;-80
2021/08/13 03:33:20;;;;;;;7.17;3.80;;;;;;;;;;5022932;28;20071;-80
2021/08/13 03:35:45;;;;;;;6.53;3.70;;;;;;;;;;5055982;28;20036;-80
2021/08/13 03:38:11;;;;;;;7.00;3.77;;;;;;;;;;5020220;28;20017;-80
2021/08/13 03:40:36;;;;;;;6.33;4.20;;;;;;;;;;5024393;28;20727;-80
2021/08/13 03:43:02;;;;;;;6.30;3.90;;;;;;;;;;5075211;28;20103;-80
2021/08/13 03:45:27;;;;;;;7.83;4.23;;;;;;;;;;5042042;28;20426;-80
2021/08/13 03:47:52;;;;;;;6.30;3.90;;;;;;;;;;5058716;28;20048;-80
2021/08/13 03:50:18;;;;;;;7.37;3.77;;;;;;;;;;5058722;28;20464;-80
2021/08/13 03:52:44;;;;;;;7.23;4.17;;;;;;;;;;5058166;28;20025;-80
2021/08/13 03:55:12;;;;;;;5.65;3.58;;;;;;;;;;5025660;28;20068;-80
2021/08/13 03:57:37;;;;;;;6.70;4.13;;;;;;;;;;5023440;28;20047;-80
2021/08/13 04:00:04;;;;;;;8.50;4.20;;;;;;;;;;5023232;28;20028;-80
2021/08/13 04:02:29;;;;;;;7.07;3.95;;;;;;;;;;5038748;28;20032;-80
2021/08/13 04:04:55;;;;;;;5.93;3.53;;;;;;;;;;5038760;28;20125;-80
2021/08/13 04:07:20;;;;;;;6.77;3.80;;;;;;;;;;5019672;28;20049;-79
2021/08/13 04:09:45;;;;;;;6.17;3.70;;;;;;;;;;5033813;28;20029;-80
2021/08/13 04:12:11;;;;;;;6.10;3.70;;;;;;;;;;5041080;28;20054;-81
2021/08/13 04:14:36;;;;;;;6.77;4.03;;;;;;;;;;5041485;28;20082;-80
2021/08/13 04:17:02;;;;;;;7.30;3.97;;;;;;;;;;5057355;28;20028;-81
2021/08/13 04:19:27;;;;;;;7.10;4.10;;;;;;;;;;5017815;28;20029;-80
2021/08/13 04:21:52;;;;;;;7.07;4.03;;;;;;;;;;5021070;28;20427;-81
2021/08/13 04:24:18;;;;;;;6.80;4.00;;;;;;;;;;5041400;28;20059;-81
2021/08/13 04:26:43;;;;;;;7.70;3.97;;;;;;;;;;5058854;28;20056;-80
2021/08/13 04:29:08;;;;;;;7.17;4.37;;;;;;;;;;5032063;28;20072;-80
2021/08/13 04:31:34;;;;;;;6.77;4.23;;;;;;;;;;5055622;28;20111;-80
2021/08/13 04:33:59;;;;;;;7.23;4.27;;;;;;;;;;5024409;28;20503;-80
2021/08/13 04:36:25;;;;;;;6.35;4.20;;;;;;;;;;5002290;28;20044;-80
2021/08/13 04:38:50;;;;;;;7.10;4.03;;;;;;;;;;5025884;28;20032;-79
2021/08/13 04:41:15;;;;;;;8.13;4.93;;;;;;;;;;5058620;28;20099;-79
2021/08/13 04:43:41;;;;;;;7.80;4.80;;;;;;;;;;5045094;28;20079;-79
2021/08/13 04:46:06;;;;;;;7.77;4.20;;;;;;;;;;5018333;28;20542;-80
2021/08/13 04:48:31;;;;;;;6.73;4.23;;;;;;;;;;5035096;28;20033;-80
2021/08/13 04:50:57;;;;;;;7.63;4.57;;;;;;;;;;5034427;28;20105;-79
2021/08/13 04:53:22;;;;;;;7.27;4.53;;;;;;;;;;5036448;28;20056;-79
2021/08/13 04:55:48;;;;;;;7.57;4.43;;;;;;;;;;5049835;28;20501;-79
2021/08/13 04:58:13;;;;;;;7.23;4.50;;;;;;;;;;5071883;28;20051;-79
2021/08/13 05:00:39;;;;;;;7.07;4.37;;;;;;;;;;5037404;28;20060;-79
2021/08/13 05:03:05;;;;;;;9.00;5.10;;;;;;;;;;5062995;28;20039;-79
2021/08/13 05:05:31;;;;;;;7.50;4.80;;;;;;;;;;5023696;28;20459;-80
2021/08/13 05:07:56;;;;;;;8.53;4.77;;;;;;;;;;5020632;28;20098;-79
2021/08/13 05:10:21;;;;;;;8.70;4.93;;;;;;;;;;5055268;28;20112;-79
2021/08/13 05:12:47;;;;;;;9.07;5.07;;;;;;;;;;5056930;28;20098;-80
2021/08/13 05:15:12;;;;;;;8.13;5.17;;;;;;;;;;5073717;28;20027;-79
2021/08/13 05:17:37;;;;;;;8.30;5.17;;;;;;;;;;5040083;28;20522;-80
2021/08/13 05:20:04;;;;;;;8.67;5.00;;;;;;;;;;5030281;28;20489;-80
2021/08/13 05:22:32;;;;;;;8.32;5.13;;;;;;;;;;5057077;28;20384;-79
2021/08/13 05:25:00;;;;;;;8.48;5.07;;;;;;;;;;5029660;28;20052;-80
2021/08/13 05:27:25;;;;;;;9.82;4.95;;;;;;;;;;5005839;28;20499;-79
2021/08/13 05:29:50;;;;;;;8.90;5.33;;;;;;;;;;5032042;28;20056;-81
2021/08/13 05:32:16;;;;;;;7.77;4.80;;;;;;;;;;5039446;28;20467;-82
2021/08/13 05:34:41;;;;;;;9.03;5.40;;;;;;;;;;5017972;28;20128;-82
2021/08/13 05:37:06;;;;;;;9.50;5.23;;;;;;;;;;5045144;28;20115;-82
2021/08/13 05:39:32;;;;;;;8.33;5.10;;;;;;;;;;5026766;28;20025;-79
2021/08/13 05:41:57;;;;;;;10.10;5.57;;;;;;;;;;5056944;28;20451;-80
2021/08/13 05:44:22;;;;;;;9.83;5.20;;;;;;;;;;5039568;28;20060;-78
2021/08/13 05:46:48;;;;;;;8.47;5.13;;;;;;;;;;5031506;28;20119;-78
2021/08/13 05:49:13;;;;;;;9.00;4.90;;;;;;;;;;5035530;28;20074;-78
2021/08/13 05:51:38;;;;;;;8.47;5.13;;;;;;;;;;5043032;28;20468;-78
2021/08/13 05:54:04;;;;;;;8.60;5.23;;;;;;;;;;5054372;28;20086;-78
2021/08/13 05:56:29;;;;;;;8.20;4.80;;;;;;;;;;5038615;28;20105;-78
2021/08/13 05:59:00;;;;;;;7.93;4.80;;;;;;;;;;5038805;28;20147;-78
2021/08/13 06:01:25;;;;;;;9.43;5.15;;;;;;;;;;5038088;28;20182;-78
2021/08/13 06:03:50;;;;;;;9.00;4.97;;;;;;;;;;5019090;28;20540;-78
2021/08/13 06:06:16;;;;;;;9.53;5.20;;;;;;;;;;5038359;28;20017;-77
2021/08/13 06:08:41;;;;;;;8.53;5.30;;;;;;;;;;5038436;28;20135;-78
2021/08/13 06:11:06;;;;;;;7.87;5.13;;;;;;;;;;5052577;28;20055;-78
2021/08/13 06:13:32;;;;;;;8.17;4.83;;;;;;;;;;5056683;28;20146;-78
2021/08/13 06:15:57;;;;;;;8.90;5.17;;;;;;;;;;5030260;28;20121;-78
2021/08/13 06:18:22;;;;;;;9.03;5.50;;;;;;;;;;5016615;28;20445;-78
2021/08/13 06:20:48;;;;;;;9.90;5.60;;;;;;;;;;5036863;28;20027;-78
2021/08/13 06:23:13;;;;;;;9.83;4.83;;;;;;;;;;5018637;28;20029;-78
2021/08/13 06:25:38;;;;;;;9.00;5.00;;;;;;;;;;5017152;28;20475;-77
2021/08/13 06:28:04;;;;;;;8.07;5.17;;;;;;;;;;5043966;28;20029;-78
2021/08/13 06:30:29;;;;;;;7.97;4.93;;;;;;;;;;5051495;28;20039;-78
2021/08/13 06:32:55;;;;;;;9.00;5.33;;;;;;;;;;5044308;28;20105;-78
2021/08/13 06:35:21;;;;;;;8.98;5.30;;;;;;;;;;5044586;28;20025;-77
2021/08/13 06:37:48;;;;;;;7.47;4.60;;;;;;;;;;5045764;28;20055;-77
2021/08/13 06:40:13;;;;;;;7.53;4.60;;;;;;;;;;5019035;28;20092;-77
2021/08/13 06:42:39;;;;;;;8.10;4.87;;;;;;;;;;5037666;28;20035;-77
2021/08/13 06:45:07;;;;;;;9.10;5.20;;;;;;;;;;5058849;28;20082;-78
2021/08/13 06:47:32;;;;;;;7.20;4.68;;;;;;;;;;5026845;28;20037;-78
2021/08/13 06:49:58;;;;;;;8.57;4.80;;;;;;;;;;5017905;28;20116;-78
2021/08/13 06:52:23;;;;;;;7.43;4.85;;;;;;;;;;5038528;28;20056;-77
2021/08/13 06:54:49;;;;;;;9.50;4.87;;;;;;;;;;5038771;28;20669;-78
2021/08/13 06:57:14;;;;;;;7.50;4.97;;;;;;;;;;5038520;28;20107;-77
2021/08/13 06:59:39;;;;;;;7.20;4.77;;;;;;;;;;5038534;28;20112;-77
2021/08/13 07:02:05;;;;;;;7.43;4.53;;;;;;;;;;5038406;28;20533;-77
2021/08/13 07:04:30;;;;;;;7.80;4.57;;;;;;;;;;5035248;28;20028;-77
2021/08/13 07:06:55;;;;;;;7.77;4.90;;;;;;;;;;5035269;28;20113;-78
2021/08/13 07:09:21;;;;;;;8.30;5.00;;;;;;;;;;5018475;28;20099;-78
2021/08/13 07:11:46;;;;;;;7.20;4.70;;;;;;;;;;5030601;28;20060;-78
2021/08/13 07:14:11;;;;;;;7.77;4.93;;;;;;;;;;5026882;28;20459;-78
2021/08/13 07:16:37;;;;;;;8.07;4.70;;;;;;;;;;5042526;28;20083;-78
2021/08/13 07:19:02;;;;;;;9.33;4.87;;;;;;;;;;5034459;28;20051;-78
2021/08/13 07:21:27;;;;;;;9.33;4.57;;;;;;;;;;5040844;28;20070;-77
2021/08/13 07:23:53;;;;;;;7.23;4.30;;;;;;;;;;5067131;28;20017;-77
2021/08/13 07:26:18;;;;;;;7.53;4.80;;;;;;;;;;5040449;28;20066;-77
2021/08/13 07:28:43;;;;;;;7.70;4.53;;;;;;;;;;5033032;28;20068;-78
2021/08/13 07:31:09;;;;;;;8.87;4.87;;;;;;;;;;5018132;28;20075;-77
2021/08/13 07:33:34;;;;;;;8.50;4.80;;;;;;;;;;5006157;28;20044;-78
2021/08/13 07:35:59;;;;;;;7.97;5.17;;;;;;;;;;5037819;28;20610;-78
2021/08/13 07:38:25;;;;;;;7.83;4.60;;;;;;;;;;5021347;28;20048;-78
2021/08/13 07:40:50;;;;;;;7.93;4.67;;;;;;;;;;5021259;28;20093;-78
2021/08/13 07:43:15;;;;;;;7.77;5.00;;;;;;;;;;5038084;28;20048;-78
2021/08/13 07:45:41;;;;;;;8.33;4.70;;;;;;;;;;5035799;28;20108;-78
2021/08/13 07:48:06;;;;;;;8.53;4.57;;;;;;;;;;5056692;28;20105;-78
2021/08/13 07:50:32;;;;;;;8.47;4.50;;;;;;;;;;5028542;28;20036;-78
2021/08/13 07:52:57;;;;;;;7.90;4.83;;;;;;;;;;5001336;28;20120;-78
2021/08/13 07:55:23;;;;;;;7.77;4.83;;;;;;;;;;5021458;28;20104;-77
2021/08/13 07:57:49;;;;;;;6.23;4.10;;;;;;;;;;5034209;28;20522;-78
2021/08/13 08:00:15;;;;;;;7.50;4.55;;;;;;;;;;5017743;28;20091;-78
2021/08/13 08:02:40;;;;;;;7.37;4.53;;;;;;;;;;5035211;28;20488;-78
2021/08/13 08:05:06;;;;;;;8.07;4.50;;;;;;;;;;5039026;28;20028;-77
2021/08/13 08:07:31;;;;;;;7.13;4.47;;;;;;;;;;5020657;28;20033;-78
2021/08/13 08:09:57;;;;;;;7.90;4.60;;;;;;;;;;5030129;28;20127;-78
2021/08/13 08:12:22;;;;;;;7.57;4.57;;;;;;;;;;5070519;22;20114;-76
2021/08/13 08:14:47;;;;;;;7.70;4.47;;;;;;;;;;5074085;28;20095;-76
2021/08/13 08:17:13;;;;;;;7.73;4.73;;;;;;;;;;5040421;28;20111;-76
2021/08/13 08:19:38;;;;;;;8.13;4.53;;;;;;;;;;5056998;28;20036;-76
2021/08/13 08:22:04;;;;;;;6.87;4.10;;;;;;;;;;5056916;28;20135;-76
2021/08/13 08:24:30;;;;;;;8.07;4.75;;;;;;;;;;5046514;28;20021;-76
2021/08/13 08:26:55;;;;;;;7.73;4.77;;;;;;;;;;5035399;28;20025;-76
2021/08/13 08:29:20;;;;;;;8.10;4.40;;;;;;;;;;5056737;28;20125;-77
2021/08/13 08:31:46;;;;;;;7.57;4.73;;;;;;;;;;5036632;28;20036;-76
2021/08/13 08:34:11;;;;;;;7.97;4.70;;;;;;;;;;5029757;28;20060;-77
2021/08/13 08:36:36;;;;;;;7.13;4.17;;;;;;;;;;5036845;28;20530;-76
2021/08/13 08:39:02;;;;;;;8.60;4.70;;;;;;;;;;5070768;28;20177;-76
2021/08/13 08:41:28;;;;;;;7.38;4.47;;;;;;;;;;5039915;28;20028;-76
2021/08/13 08:43:53;;;;;;;7.83;4.50;;;;;;;;;;5023171;28;20029;-76
2021/08/13 08:46:19;;;;;;;7.67;4.40;;;;;;;;;;5038070;28;20048;-76
2021/08/13 08:48:45;;;;;;;7.57;4.40;;;;;;;;;;5045157;28;20039;-76
2021/08/13 08:51:10;;;;;;;7.37;4.40;;;;;;;;;;5039775;28;20411;-76
2021/08/13 08:53:35;;;;;;;7.93;4.60;;;;;;;;;;5036229;28;20056;-76
2021/08/13 08:56:01;;;;;;;7.27;4.50;;;;;;;;;;5036373;28;20057;-76
2021/08/13 08:58:30;;;;;;;7.53;4.80;;;;;;;;;;5036611;28;20028;-76
2021/08/13 09:00:55;;;;;;;6.97;4.10;;;;;;;;;;5036449;28;20052;-76
2021/08/13 09:03:21;;;;;;;7.27;4.40;;;;;;;;;;5052892;28;20503;-76
2021/08/13 09:05:47;;;;;;;7.50;4.60;;;;;;;;;;5052814;28;20392;-76
2021/08/13 09:08:12;;;;;;;6.50;4.30;;;;;;;;;;5053923;28;20432;-76
2021/08/13 09:10:37;;;;;;;7.30;4.40;;;;;;;;;;5041503;28;20111;-76
2021/08/13 09:13:04;;;;;;;7.27;4.30;;;;;;;;;;5049625;28;20026;-76
2021/08/13 09:15:29;;;;;;;;;;;;;;;;;;5035989;28;20055;-76
2021/08/13 09:18:12;;;;;;;6.87;4.20;;;;;;;;;;5053780;28;19912;-77
2021/08/13 09:20:39;;;;;;;6.45;4.15;;;;;;;;;;5038710;28;20041;-77
2021/08/13 09:23:04;;;;;;;7.07;4.50;;;;;;;;;;5055417;28;20036;-76
2021/08/13 09:25:30;;;;;;;7.93;4.57;;;;;;;;;;5018630;28;20115;-76
2021/08/13 09:27:55;;;;;;;7.30;4.53;;;;;;;;;;5035826;28;20072;-76
2021/08/13 09:30:21;;;;;;;7.17;4.40;;;;;;;;;;5040093;28;20047;-76
2021/08/13 09:33:05;;;;;;;7.77;4.47;;;;;;;;;;5038991;28;20029;-76
2021/08/13 09:35:37;;;;;;;6.60;4.15;;;;;;;;;;5037242;28;20375;-76
2021/08/13 09:38:08;;;;;;;8.63;4.85;;;;;;;;;;5043494;28;20472;-75
2021/08/13 09:40:38;;;;;;;8.02;4.60;;;;;;;;;;5042426;28;20496;-75
2021/08/13 09:43:03;;;;;;;6.90;4.35;;;;;;;;;;5056056;28;20434;-76
2021/08/13 09:45:28;;;;;;;7.83;4.67;;;;;;;;;;5038986;28;20047;-76
2021/08/13 09:47:54;;;;;;;6.40;3.97;;;;;;;;;;5045245;28;20049;-76
2021/08/13 09:50:20;;;;;;;7.73;4.30;;;;;;;;;;5049845;28;20059;-76
2021/08/13 09:53:06;;;;;;;7.63;4.32;;;;;;;;;;5035382;28;20033;-76
2021/08/13 09:55:31;;;;;;;6.45;4.10;;;;;;;;;;5030986;28;20127;-76
2021/08/13 09:57:56;;;;;;;7.90;4.60;;;;;;;;;;5036512;28;20108;-76
2021/08/13 10:00:22;;;;;;;8.07;4.20;;;;;;;;;;5053007;28;20379;-76
2021/08/13 10:02:47;;;;;;;6.93;4.17;;;;;;;;;;5019265;28;20079;-76
2021/08/13 10:05:20;;;;;;;6.83;4.23;;;;;;;;;;5046760;28;20151;-76
2021/08/13 10:07:46;;;;;;;7.90;4.38;;;;;;;;;;5036125;28;20025;-76
2021/08/13 10:10:11;;;;;;;;;;;;;;;;;;5018722;28;20037;-76
2021/08/13 10:12:44;;;;;;;7.07;4.20;;;;;;;;;;5036124;28;19970;-76
2021/08/13 10:15:10;;;;;;;7.85;4.07;;;;;;;;;;5049425;28;20024;-76
2021/08/13 10:17:35;;;;;;;;;;;;;;;;;;5047461;28;20018;-76
2021/08/13 10:20:01;;;;;;;7.68;4.15;;;;;;;;;;5039777;28;19965;-76
2021/08/13 10:22:26;;;;;;;7.37;4.30;;;;;;;;;;5051214;28;20016;-76
2021/08/13 10:24:51;;;;;;;7.87;4.47;;;;;;;;;;5039487;28;20055;-76
2021/08/13 10:27:18;;;;;;;6.77;3.87;;;;;;;;;;5034881;28;20112;-76
2021/08/13 10:29:44;;;;;;;6.50;4.20;;;;;;;;;;5034009;28;20025;-75
2021/08/13 10:32:09;;;;;;;8.27;4.45;;;;;;;;;;5039254;28;20032;-76
2021/08/13 10:34:34;;;;;;;7.53;4.40;;;;;;;;;;5015635;28;20029;-76
2021/08/13 10:37:02;;;;;;;6.20;3.87;;;;;;;;;;5049483;28;20025;-77
2021/08/13 10:39:29;;;;;;;6.60;4.30;;;;;;;;;;5027080;28;20098;-76
2021/08/13 10:41:58;;;;;;;7.10;4.30;;;;;;;;;;5034827;28;20078;-77
2021/08/13 10:44:25;;;;;;;7.15;4.35;;;;;;;;;;5050196;28;20031;-77
2021/08/13 10:46:50;;;;;;;;;;;;;;;;;;5041097;28;20471;-78
2021/08/13 10:49:17;;;;;;;6.60;3.95;;;;;;;;;;5055251;28;19942;-76
2021/08/13 10:51:43;;;;;;;6.80;4.22;;;;;;;;;;5033186;28;20547;-76
2021/08/13 10:54:09;;;;;;;6.70;4.17;;;;;;;;;;5031882;28;20112;-77
2021/08/13 10:56:45;;;;;;;7.20;3.85;;;;;;;;;;5018441;28;20498;-78
2021/08/13 10:59:10;;;;;;;6.32;4.00;;;;;;;;;;5025180;28;20403;-78
2021/08/13 11:01:36;;;;;;;8.03;4.00;;;;;;;;;;5034604;28;20096;-77
2021/08/13 11:04:01;;;;;;;7.53;4.30;;;;;;;;;;5034707;28;20103;-76
2021/08/13 11:06:35;;;;;;;7.50;4.20;;;;;;;;;;5053400;28;20032;-77
2021/08/13 11:09:01;;;;;;;6.97;4.20;;;;;;;;;;5061222;28;20036;-76
2021/08/13 11:11:28;;;;;;;6.38;4.30;;;;;;;;;;5028246;28;20025;-77
2021/08/13 11:13:54;;;;;;;6.43;3.97;;;;;;;;;;5018491;28;20040;-76
2021/08/13 11:16:25;;;;;;;7.60;3.77;;;;;;;;;;5018131;28;20025;-76
2021/08/13 11:18:57;;;;;;;7.25;4.30;;;;;;;;;;5034475;28;20033;-77
2021/08/13 11:21:51;;;;;;;7.78;4.25;;;;;;;;;;5034787;28;20035;-76
2021/08/13 11:24:18;;;;;;;7.53;3.95;;;;;;;;;;5039580;28;20021;-76
2021/08/13 11:26:56;;;;;;;6.18;4.25;;;;;;;;;;5058068;28;20020;-76
2021/08/13 11:29:27;;;;;;;7.10;4.15;;;;;;;;;;5074725;28;20135;-76
2021/08/13 11:31:53;;;;;;;6.88;4.22;;;;;;;;;;5074492;28;20024;-76
2021/08/13 11:34:44;;;;;;;6.78;3.97;;;;;;;;;;5056124;28;20086;-76
2021/08/13 11:37:41;;;;;;;8.27;4.20;;;;;;;;;;5041191;28;20387;-76
2021/08/13 11:40:08;;;;;;;7.53;3.83;;;;;;;;;;5047854;28;20091;-77
2021/08/13 11:42:34;;;;;;;6.53;4.10;;;;;;;;;;5037789;28;20060;-77
2021/08/13 11:45:07;;;;;;;8.00;4.50;;;;;;;;;;5056502;28;20513;-76
2021/08/13 11:47:32;;;;;;;7.03;4.13;;;;;;;;;;5021854;28;20033;-76
2021/08/13 11:49:58;;;;;;;7.20;4.37;;;;;;;;;;5066088;28;20033;-76
2021/08/13 11:52:24;;;;;;;6.63;4.13;;;;;;;;;;5025194;28;20063;-76
2021/08/13 11:54:49;;;;;;;;;;;;;;;;;;5037808;28;20483;-76
2021/08/13 11:57:17;;;;;;;7.78;4.28;;;;;;;;;;5037265;28;19915;-76
2021/08/13 11:59:46;;;;;;;6.47;4.00;;;;;;;;;;5018353;28;20399;-78
2021/08/13 12:02:12;;;;;;;7.50;4.30;;;;;;;;;;5026253;28;20060;-78
2021/08/13 12:04:37;;;;;;;7.10;4.30;;;;;;;;;;5024351;28;20083;-77
2021/08/13 12:07:02;;;;;;;6.57;4.13;;;;;;;;;;5042682;28;20116;-78
2021/08/13 12:09:30;;;;;;;6.63;3.87;;;;;;;;;;5045472;28;20029;-78
2021/08/13 12:11:55;;;;;;;7.13;3.63;;;;;;;;;;5045949;28;20479;-77
2021/08/13 12:14:20;;;;;;;7.57;4.27;;;;;;;;;;5047130;28;20054;-78
2021/08/13 12:16:52;;;;;;;6.20;3.90;;;;;;;;;;5043996;28;20024;-77
2021/08/13 12:19:17;;;;;;;8.23;4.18;;;;;;;;;;5041688;28;20037;-77
2021/08/13 12:21:53;;;;;;;8.13;4.13;;;;;;;;;;5040364;28;20028;-77
2021/08/13 12:24:35;;;;;;;6.82;4.10;;;;;;;;;;5037829;28;20021;-76
2021/08/13 12:27:08;;;;;;;7.55;4.20;;;;;;;;;;5042205;28;20040;-77
2021/08/13 12:29:38;;;;;;;6.28;3.85;;;;;;;;;;5020207;28;20090;-77
2021/08/13 12:32:05;;;;;;;6.50;3.92;;;;;;;;;;5018275;28;20530;-77
2021/08/13 12:34:31;;;;;;;6.40;3.92;;;;;;;;;;5001395;28;20033;-77
2021/08/13 12:37:04;;;;;;;6.32;3.97;;;;;;;;;;5008940;28;20025;-77
2021/08/13 12:39:30;;;;;;;6.28;3.95;;;;;;;;;;5038455;28;20053;-77
2021/08/13 12:41:56;;;;;;;5.65;3.60;;;;;;;;;;5034456;28;20036;-77
2021/08/13 12:44:21;;;;;;;7.53;4.03;;;;;;;;;;5044101;28;20043;-77
2021/08/13 12:46:46;;;;;;;10.30;4.07;;;;;;;;;;5053735;28;20452;-76
2021/08/13 12:49:15;;;;;;;6.30;3.60;;;;;;;;;;5033936;28;20044;-76
2021/08/13 12:51:40;;;;;;;6.60;3.97;;;;;;;;;;5020002;28;20086;-76
2021/08/13 12:54:32;;;;;;;6.20;3.80;;;;;;;;;;5021064;28;20029;-77
2021/08/13 12:57:01;;;;;;;8.23;4.40;;;;;;;;;;5050490;28;20033;-77
2021/08/13 12:59:34;;;;;;;6.72;3.80;;;;;;;;;;5032117;28;20036;-77
2021/08/13 13:01:59;;;;;;;6.55;3.58;;;;;;;;;;5060201;28;20033;-76
2021/08/13 13:04:36;;;;;;;6.40;4.00;;;;;;;;;;5031633;28;20039;-76
2021/08/13 13:07:02;;;;;;;6.03;3.70;;;;;;;;;;5051158;28;20132;-76
2021/08/13 13:09:32;;;;;;;6.30;4.07;;;;;;;;;;5020409;28;20063;-77
2021/08/13 13:12:23;;;;;;;6.85;3.95;;;;;;;;;;5002501;28;20033;-77
2021/08/13 13:14:53;;;;;;;6.75;3.83;;;;;;;;;;5035380;28;20032;-77
2021/08/13 13:17:18;;;;;;;6.30;3.67;;;;;;;;;;5037569;28;20028;-77
2021/08/13 13:20:02;;;;;;;7.40;3.70;;;;;;;;;;5036492;28;20437;-77
2021/08/13 13:22:28;;;;;;;6.57;3.90;;;;;;;;;;5039696;28;20032;-77
2021/08/13 13:25:13;;;;;;;5.67;3.63;;;;;;;;;;5071683;28;20027;-76
2021/08/13 13:27:57;;;;;;;7.05;4.00;;;;;;;;;;5053859;28;20025;-77
2021/08/13 13:30:42;;;;;;;6.50;3.80;;;;;;;;;;5052026;28;20016;-77
2021/08/13 13:33:09;;;;;;;6.45;3.42;;;;;;;;;;5051749;28;20516;-77
2021/08/13 13:35:35;;;;;;;5.93;3.55;;;;;;;;;;5065028;28;20025;-77
2021/08/13 13:38:01;;;;;;;6.43;3.53;;;;;;;;;;5035986;28;20103;-77
2021/08/13 13:40:27;;;;;;;5.72;3.60;;;;;;;;;;5036419;28;20039;-77
2021/08/13 13:42:52;;;;;;;6.32;3.80;;;;;;;;;;5032746;28;20028;-76
2021/08/13 13:45:18;;;;;;;5.63;3.83;;;;;;;;;;5046855;28;20052;-77
2021/08/13 13:47:43;;;;;;;5.80;3.70;;;;;;;;;;5032871;28;20458;-76
2021/08/13 13:50:09;;;;;;;6.60;4.00;;;;;;;;;;5018932;28;20028;-76
2021/08/13 13:52:35;;;;;;;6.15;3.75;;;;;;;;;;5032010;28;20028;-76
2021/08/13 13:55:00;;;;;;;6.27;3.57;;;;;;;;;;5039471;28;20068;-77
2021/08/13 13:57:26;;;;;;;5.40;3.53;;;;;;;;;;5032146;28;20029;-78
2021/08/13 13:59:51;;;;;;;6.47;3.60;;;;;;;;;;5033759;28;20036;-76
2021/08/13 14:02:16;;;;;;;5.77;3.37;;;;;;;;;;5051652;28;20034;-76
2021/08/13 14:04:42;;;;;;;6.13;3.87;;;;;;;;;;5031118;28;20037;-77
2021/08/13 14:07:07;;;;;;;6.80;3.80;;;;;;;;;;5031812;28;20128;-77
2021/08/13 14:09:32;;;;;;;5.87;3.63;;;;;;;;;;5032946;28;20119;-76
2021/08/13 14:11:58;;;;;;;6.07;3.40;;;;;;;;;;5034350;28;20035;-77
2021/08/13 14:14:23;;;;;;;6.07;3.90;;;;;;;;;;5035734;28;20043;-76
2021/08/13 14:16:49;;;;;;;6.20;3.90;;;;;;;;;;5035340;28;20036;-76
2021/08/13 14:19:14;;;;;;;7.47;3.90;;;;;;;;;;5035149;28;20028;-76
2021/08/13 14:21:39;;;;;;;7.30;4.20;;;;;;;;;;5051404;28;20555;-76
2021/08/13 14:24:05;;;;;;;6.43;3.50;;;;;;;;;;5049256;28;20466;-76
2021/08/13 14:26:30;;;;;;;6.80;3.63;;;;;;;;;;5015626;28;20028;-76
2021/08/13 14:28:56;;;;;;;6.20;3.70;;;;;;;;;;5050077;28;20029;-76
2021/08/13 14:31:22;;;;;;;6.97;3.87;;;;;;;;;;5050948;28;20163;-76
2021/08/13 14:33:47;;;;;;;6.05;3.83;;;;;;;;;;5042729;28;20044;-76
2021/08/13 14:36:12;;;;;;;5.77;3.60;;;;;;;;;;5034778;28;20442;-76
2021/08/13 14:38:38;;;;;;;6.23;3.90;;;;;;;;;;5059794;28;20065;-76
2021/08/13 14:41:03;;;;;;;5.73;3.43;;;;;;;;;;5043975;28;20140;-76
2021/08/13 14:43:29;;;;;;;7.47;3.67;;;;;;;;;;5035926;28;20020;-76
2021/08/13 14:45:54;;;;;;;5.30;3.47;;;;;;;;;;5031334;28;20077;-76